Time;durP1;ratioP1;P1;durP2;ratioP2;P2;SDS_P1;SDS_P2;PMS_P1;PMS_P2;Temp;Humidity;BMP_temperature;BMP_pressure;BME280_temperature;BME280_humidity;BME280_pressure;Samples;Min_cycle;Max_cycle;Signal;HPM_P1;HPM_P2
2020/12/27 00:00:41;;;;;;;4.30;2.92;;;6.80;99.90;;;6.67;100.00;99857.69;4849834;29;20030;-88
2020/12/27 00:03:22;;;;;;;4.05;3.58;;;6.80;99.90;;;6.89;100.00;99861.94;4845188;29;20049;-89
2020/12/27 00:06:06;;;;;;;5.32;3.00;;;6.40;99.90;;;6.73;100.00;99840.66;4849309;29;20370;-89
2020/12/27 00:09:12;;;;;;;3.50;3.20;;;6.90;99.90;;;6.70;99.81;99834.81;4857452;29;20041;-88
2020/12/27 00:11:41;;;;;;;3.25;2.90;;;6.80;99.90;;;6.74;99.84;99839.63;4879840;29;20034;-88
2020/12/27 00:15:12;;;;;;;;;;;;;;;;;;;;;
2020/12/27 00:18:03;;;;;;;;;;;;;;;;;;;;;
2020/12/27 00:29:13;;;;;;;4.05;3.58;;;6.70;99.90;;;6.48;100.00;99766.50;4800793;29;20103;-88
2020/12/27 00:36:35;;;;;;;6.13;4.10;;;6.70;99.90;;;6.58;99.43;99745.31;4821109;29;20039;-88
2020/12/27 02:21:25;;;;;;;4.93;3.50;;;6.20;99.90;;;5.95;98.30;99352.16;4847725;29;20060;-90
2020/12/27 02:35:47;;;;;;;6.25;4.00;;;6.00;99.90;;;5.86;98.66;99286.69;4763870;30;20477;-90
2020/12/27 02:38:24;;;;;;;5.10;4.57;;;6.00;99.90;;;5.94;98.74;99291.91;4762270;30;20040;-90
2020/12/27 02:40:53;;;;;;;9.82;4.13;;;6.00;99.90;;;5.86;98.54;99278.59;4761434;30;20511;-90
2020/12/27 02:44:28;;;;;;;;;;;;;;;;;;;;;
2020/12/27 02:50:56;;;;;;;7.50;3.78;;;5.90;99.90;;;5.78;99.68;99227.47;4750602;30;20392;-90
2020/12/27 02:57:55;;;;;;;4.63;3.83;;;5.90;99.90;;;5.64;100.00;99179.97;4739623;30;20108;-90
2020/12/27 03:12:19;;;;;;;;;;;;;;;;;;;;;
2020/12/27 03:19:49;;;;;;;4.15;3.20;;;5.40;99.90;;;5.20;100.00;99118.56;4844860;29;20041;-89
2020/12/27 03:31:13;;;;;;;3.28;2.22;;;5.70;99.90;;;5.07;100.00;99070.88;4734792;30;20151;-88
2020/12/27 03:34:52;;;;;;;;;;;;;;;;;;;;;
2020/12/27 03:41:56;;;;;;;4.43;2.75;;;5.30;99.90;;;5.05;100.00;99024.41;4656065;30;20148;-90
2020/12/27 03:48:06;;;;;;;3.92;2.45;;;5.30;99.90;;;5.05;100.00;98997.44;4689651;30;20064;-90
2020/12/27 03:50:34;;;;;;;2.97;2.58;;;5.30;99.90;;;5.03;100.00;98997.66;4717961;30;20500;-91
2020/12/27 03:53:06;;;;;;;3.30;2.22;;;5.40;99.90;;;5.04;100.00;98982.31;4811990;29;20069;-90
2020/12/27 03:55:36;;;;;;;3.55;2.75;;;6.10;99.90;;;5.03;100.00;98953.69;4824506;29;20044;-89
2020/12/27 03:58:04;;;;;;;2.28;2.05;;;5.30;99.90;;;5.02;100.00;98960.94;4858758;29;20026;-88
2020/12/27 04:00:33;;;;;;;2.70;1.80;;;5.30;99.90;;;5.05;100.00;98957.00;4833452;29;20140;-90
2020/12/27 04:03:17;;;;;;;3.40;2.47;;;5.30;99.90;;;5.07;100.00;98944.13;4848474;29;20033;-89
2020/12/27 04:05:48;;;;;;;2.20;2.00;;;6.00;99.90;;;5.03;100.00;98916.75;4848872;29;20108;-91
2020/12/27 04:08:18;;;;;;;3.10;2.10;;;5.40;99.90;;;5.06;100.00;98912.81;4833843;29;20469;-90
2020/12/27 04:21:27;;;;;;;2.60;1.85;;;5.40;99.90;;;5.14;100.00;98837.06;5643008;22;15310235;-89
2020/12/27 04:27:39;;;;;;;3.38;2.08;;;5.30;99.90;;;5.11;100.00;98832.94;6291930;22;20343;-89
2020/12/27 04:30:07;;;;;;;2.45;1.88;;;5.40;99.90;;;5.11;100.00;98787.09;6239930;22;20011;-91
2020/12/27 04:32:36;;;;;;;2.00;1.60;;;5.40;99.90;;;5.10;100.00;98808.88;6264534;22;20037;-89
2020/12/27 04:35:06;;;;;;;1.77;1.55;;;5.40;99.90;;;5.11;100.00;98768.19;6264254;22;20008;-90
2020/12/27 04:37:52;;;;;;;2.42;1.63;;;5.40;99.90;;;5.09;100.00;98761.38;6265954;22;20434;-90
2020/12/27 04:40:21;;;;;;;3.38;1.95;;;5.40;99.90;;;5.15;100.00;98747.03;6262786;22;20094;-90
2020/12/27 04:43:05;;;;;;;3.42;1.63;;;5.40;99.90;;;5.14;100.00;98713.03;6238372;22;20064;-89
2020/12/27 04:45:38;;;;;;;1.65;1.55;;;5.40;99.90;;;5.18;100.00;98708.84;6265356;22;20007;-90
2020/12/27 04:48:04;;;;;;;1.83;1.60;;;5.30;99.90;;;5.21;100.00;98697.59;6239121;22;20038;-91
2020/12/27 04:50:32;;;;;;;2.40;1.67;;;5.60;99.90;;;5.19;100.00;98683.53;6238714;22;20003;-90
2020/12/27 04:52:59;;;;;;;1.90;1.42;;;5.40;99.90;;;5.25;100.00;98654.84;6264051;22;20006;-91
2020/12/27 04:55:25;;;;;;;2.80;1.95;;;5.40;99.90;;;5.24;100.00;98675.59;6265233;22;20007;-89
2020/12/27 04:57:53;;;;;;;2.20;1.80;;;5.50;99.90;;;5.25;100.00;98650.28;6265653;22;20030;-89
2020/12/27 05:00:24;;;;;;;4.28;1.40;;;5.60;99.90;;;5.25;100.00;98654.84;6271336;22;20027;-88
2020/12/27 05:02:53;;;;;;;4.22;2.05;;;5.50;99.90;;;5.29;100.00;98642.59;6241803;22;20008;-89
2020/12/27 05:05:19;;;;;;;6.45;1.67;;;5.50;99.90;;;5.34;100.00;98638.16;6215287;22;20015;-90
2020/12/27 05:07:45;;;;;;;5.25;1.70;;;5.50;99.90;;;5.35;100.00;98626.34;6269757;22;20011;-92
2020/12/27 05:10:13;;;;;;;4.65;1.83;;;6.10;99.90;;;5.40;100.00;98631.91;6273601;22;20021;-90
2020/12/27 05:12:39;;;;;;;4.32;1.67;;;5.80;99.90;;;5.41;100.00;98611.16;6243438;22;20018;-90
2020/12/27 05:15:06;;;;;;;1.90;1.52;;;5.60;99.90;;;5.43;100.00;98596.38;6241225;22;20328;-91
2020/12/27 05:17:36;;;;;;;4.45;1.50;;;5.70;99.90;;;5.46;100.00;98571.66;6269318;22;20011;-90
2020/12/27 05:20:12;;;;;;;4.97;1.55;;;5.60;99.90;;;5.60;100.00;98585.00;6240879;23;20036;-88
2020/12/27 05:22:40;;;;;;;2.58;1.25;;;6.00;99.90;;;5.67;100.00;98567.69;6241904;23;20008;-90
2020/12/27 05:25:06;;;;;;;2.42;1.40;;;5.60;99.90;;;5.44;100.00;98562.13;6242116;23;20028;-89
2020/12/27 05:27:38;;;;;;;3.17;1.52;;;5.70;99.90;;;5.42;100.00;98505.69;6236293;23;20027;-89
2020/12/27 05:30:04;;;;;;;5.78;1.45;;;5.70;99.90;;;5.39;100.00;98526.91;6239469;23;20012;-90
2020/12/27 05:32:30;;;;;;;6.18;1.60;;;5.60;99.90;;;5.54;100.00;98518.44;6242427;23;20090;-90
2020/12/27 05:35:01;;;;;;;2.30;1.52;;;5.70;99.90;;;5.65;100.00;98526.59;6244037;23;20075;-91
2020/12/27 05:37:30;;;;;;;2.53;1.25;;;5.70;99.90;;;5.63;100.00;98517.09;6245518;23;19992;-90
2020/12/27 05:39:56;;;;;;;2.97;0.73;;;5.70;99.90;;;5.46;100.00;98490.72;6244923;23;20015;-90
2020/12/27 05:42:25;;;;;;;4.05;1.35;;;5.70;99.90;;;5.48;100.00;98498.59;6219120;23;20056;-89
2020/12/27 05:44:52;;;;;;;4.18;1.33;;;5.70;99.90;;;5.44;100.00;98491.97;6218654;23;20008;-90
2020/12/27 05:47:20;;;;;;;0.95;0.95;;;5.80;99.90;;;5.45;100.00;98464.78;6241888;23;20020;-91
2020/12/27 05:49:46;;;;;;;1.00;0.90;;;5.70;99.90;;;5.50;100.00;98484.88;6239778;23;20016;-91
2020/12/27 05:52:16;;;;;;;2.08;1.73;;;5.70;99.90;;;5.47;100.00;98449.19;6211249;23;20008;-91
2020/12/27 05:54:47;;;;;;;2.92;1.00;;;6.30;99.90;;;5.54;100.00;98448.28;6207014;23;20011;-93
2020/12/27 05:57:15;;;;;;;1.23;1.00;;;6.00;99.90;;;5.56;100.00;98421.91;6206356;23;20434;-90
2020/12/27 05:59:45;;;;;;;1.02;0.93;;;6.50;99.90;;;5.53;100.00;98447.44;6231750;23;20023;-91
2020/12/27 06:02:42;;;;;;;0.80;0.80;;;6.10;99.90;;;5.53;100.00;98404.28;6233462;23;20447;-92
2020/12/27 06:05:13;;;;;;;2.05;0.98;;;5.70;99.90;;;5.55;100.00;98415.69;6230582;23;20023;-91
2020/12/27 06:07:47;;;;;;;0.70;0.70;;;5.60;99.90;;;5.50;100.00;98382.34;6182080;23;20016;-92
2020/12/27 06:10:21;;;;;;;0.88;0.75;;;6.20;99.90;;;5.54;100.00;98361.94;6180563;23;20009;-92
2020/12/27 06:13:12;;;;;;;0.80;0.80;;;5.60;99.90;;;5.60;100.00;98412.31;6240024;23;20016;-92
2020/12/27 06:15:46;;;;;;;2.50;1.00;;;5.60;99.90;;;5.57;100.00;98405.47;6238475;23;20008;-91
2020/12/27 06:18:29;;;;;;;2.50;0.90;;;5.60;99.90;;;5.62;100.00;98397.53;6235980;23;20004;-91
2020/12/27 06:21:12;;;;;;;0.80;0.80;;;5.70;99.90;;;5.60;100.00;98369.13;6253365;22;20024;-93
2020/12/27 06:23:39;;;;;;;2.42;0.80;;;5.70;99.90;;;5.61;100.00;98351.91;6262311;22;20038;-91
2020/12/27 06:26:06;;;;;;;1.35;1.00;;;5.70;99.90;;;5.59;100.00;98327.00;6241448;22;20018;-91
2020/12/27 06:28:34;;;;;;;0.70;0.55;;;5.70;99.90;;;5.60;100.00;98323.25;6265695;22;20014;-92
2020/12/27 06:31:09;;;;;;;0.50;0.50;;;5.70;99.90;;;5.68;100.00;98331.84;6243604;22;20008;-92
2020/12/27 06:33:41;;;;;;;1.63;0.57;;;5.80;99.90;;;5.68;100.00;98325.63;6238536;22;20059;-91
2020/12/27 06:36:07;;;;;;;0.82;0.60;;;5.80;99.90;;;5.75;100.00;98315.56;6236257;22;20000;-92
2020/12/27 06:38:33;;;;;;;0.75;0.75;;;5.80;99.90;;;5.72;100.00;98324.13;6258472;22;20004;-91
2020/12/27 06:41:09;;;;;;;1.13;0.63;;;5.80;99.90;;;5.73;100.00;98294.19;6240303;22;20008;-90
2020/12/27 06:43:43;;;;;;;1.55;0.50;;;5.80;99.90;;;5.71;100.00;98255.00;6265380;22;20007;-91
2020/12/27 06:46:31;;;;;;;0.88;0.40;;;5.80;99.90;;;5.72;100.00;98216.16;6266451;22;20019;-92
2020/12/27 06:49:10;;;;;;;0.50;0.32;;;5.80;99.90;;;5.74;100.00;98282.34;6243534;22;20432;-92
2020/12/27 06:51:44;;;;;;;0.63;0.30;;;5.80;99.90;;;5.76;100.00;98263.19;6295005;22;20055;-89
2020/12/27 06:54:12;;;;;;;0.32;0.28;;;5.90;99.90;;;5.78;100.00;98217.91;6271262;22;20061;-90
2020/12/27 06:56:40;;;;;;;0.25;0.25;;;5.90;99.90;;;5.76;100.00;98214.63;6238329;22;20007;-90
2020/12/27 06:59:06;;;;;;;0.77;0.30;;;5.90;99.90;;;5.79;100.00;98208.75;6235615;22;20004;-90
2020/12/27 07:01:33;;;;;;;1.75;0.30;;;5.90;99.90;;;5.87;100.00;98221.09;6233329;22;20069;-89
2020/12/27 07:04:15;;;;;;;0.90;0.40;;;6.00;99.90;;;5.93;100.00;98210.22;6229646;22;20035;-89
2020/12/27 07:06:46;;;;;;;0.20;0.20;;;6.00;99.90;;;5.93;100.00;98204.81;6255458;22;20007;-90
2020/12/27 07:09:25;;;;;;;0.70;0.32;;;6.10;99.90;;;5.87;100.00;98140.91;6253795;22;20008;-84
2020/12/27 07:12:11;;;;;;;3.70;0.47;;;6.10;99.90;;;5.86;100.00;98165.47;6226337;22;20034;-85
2020/12/27 07:14:43;;;;;;;1.85;0.20;;;6.10;99.90;;;5.87;100.00;98164.41;6251190;22;20035;-85
2020/12/27 07:17:11;;;;;;;0.45;0.30;;;6.10;99.90;;;5.87;100.00;98157.09;6250314;22;20039;-85
2020/12/27 07:19:38;;;;;;;0.70;0.50;;;6.10;99.90;;;5.91;100.00;98141.31;6251440;22;20012;-85
2020/12/27 07:22:10;;;;;;;0.20;0.20;;;6.10;99.90;;;5.95;100.00;98132.50;6171239;23;20027;-85
2020/12/27 07:24:39;;;;;;;0.32;0.10;;;6.10;99.90;;;5.97;100.00;98141.19;6220579;23;20008;-85
2020/12/27 07:27:09;;;;;;;0.30;0.30;;;6.20;99.90;;;6.03;100.00;98142.09;6220278;23;20036;-85
2020/12/27 07:29:35;;;;;;;0.20;0.20;;;6.20;99.90;;;6.04;100.00;98149.16;6221406;23;20019;-86
2020/12/27 07:32:03;;;;;;;0.52;0.20;;;6.20;99.90;;;6.08;100.00;98116.03;6195424;23;20143;-86
2020/12/27 07:34:34;;;;;;;0.52;0.22;;;6.20;99.90;;;6.04;100.00;98109.47;6220157;23;20089;-85
2020/12/27 07:37:07;;;;;;;0.43;0.20;;;6.20;99.90;;;6.09;100.00;98096.09;6221278;23;20038;-85
2020/12/27 07:39:48;;;;;;;0.65;0.20;;;6.30;99.90;;;6.08;100.00;98064.75;6221242;23;20012;-87
2020/12/27 07:42:34;;;;;;;0.20;0.20;;;6.40;99.90;;;6.10;100.00;98076.09;6222517;23;20460;-87
2020/12/27 07:45:03;;;;;;;0.20;0.20;;;6.30;99.90;;;6.09;100.00;98068.25;6173414;23;20008;-86
2020/12/27 07:47:29;;;;;;;0.20;0.20;;;6.30;99.90;;;6.10;100.00;98061.78;6196722;23;20008;-85
2020/12/27 07:50:15;;;;;;;0.17;0.17;;;6.30;99.90;;;6.10;100.00;98080.69;6221101;23;20012;-85
2020/12/27 07:52:52;;;;;;;0.93;0.28;;;6.30;99.90;;;6.13;100.00;98047.81;6220585;23;20012;-85
2020/12/27 07:55:39;;;;;;;0.22;0.20;;;6.40;99.90;;;6.14;100.00;98036.75;6220742;23;20022;-85
2020/12/27 07:58:07;;;;;;;0.20;0.20;;;6.40;99.90;;;6.12;100.00;98030.78;6220493;23;20015;-86
2020/12/27 08:00:42;;;;;;;0.10;0.10;;;6.40;99.90;;;6.14;100.00;97953.03;6170639;23;20076;-86
2020/12/27 08:03:09;;;;;;;6.78;0.35;;;6.30;99.90;;;6.19;100.00;98009.88;6172825;23;20012;-86
2020/12/27 08:05:37;;;;;;;0.25;0.20;;;6.40;99.90;;;6.25;100.00;97985.63;6221091;23;20012;-85
2020/12/27 08:08:09;;;;;;;2.63;0.20;;;6.60;99.90;;;6.28;100.00;97995.97;6221165;23;20019;-86
2020/12/27 08:10:36;;;;;;;0.40;0.35;;;6.40;99.90;;;6.35;100.00;97991.22;6222168;23;20004;-86
2020/12/27 08:13:05;;;;;;;0.20;0.20;;;6.50;99.90;;;6.28;100.00;97990.56;6221689;23;20001;-86
2020/12/27 08:15:38;;;;;;;0.30;0.30;;;6.50;99.90;;;6.30;100.00;97985.72;6222430;23;20016;-86
2020/12/27 08:18:10;;;;;;;2.25;0.40;;;6.50;99.90;;;6.32;100.00;97976.31;6221615;23;20053;-86
2020/12/27 08:20:50;;;;;;;0.35;0.32;;;6.50;99.90;;;6.38;100.00;97961.00;6223426;23;20019;-86
2020/12/27 08:23:17;;;;;;;0.30;0.17;;;6.60;99.90;;;6.39;99.91;97959.97;6196508;23;20010;-86
2020/12/27 08:25:44;;;;;;;0.35;0.20;;;6.60;99.90;;;6.34;100.00;97951.75;6222470;23;20058;-85
2020/12/27 08:28:16;;;;;;;0.45;0.40;;;6.60;99.90;;;6.41;100.00;97944.31;6220702;23;20464;-87
2020/12/27 08:30:45;;;;;;;0.25;0.25;;;6.60;99.90;;;6.37;99.89;97940.47;6196375;23;20016;-88
2020/12/27 08:33:16;;;;;;;0.20;0.20;;;6.70;99.90;;;6.41;100.00;97922.72;6199564;23;20013;-88
2020/12/27 08:35:46;;;;;;;0.40;0.30;;;6.70;99.90;;;6.42;99.80;97916.25;6226168;23;20000;-89
2020/12/27 08:38:35;;;;;;;0.30;0.30;;;7.00;99.90;;;6.48;99.48;97926.06;6224173;23;20004;-89
2020/12/27 08:41:24;;;;;;;3.53;0.43;;;6.70;99.90;;;6.51;98.92;97909.38;6226854;23;20011;-90
2020/12/27 08:44:32;;;;;;;0.30;0.30;;;6.80;99.90;;;6.56;99.14;97914.81;6226341;23;20468;-89
2020/12/27 08:47:04;;;;;;;0.40;0.20;;;6.80;99.90;;;6.64;98.83;97900.91;6224966;23;20004;-88
2020/12/27 08:49:44;;;;;;;0.10;0.10;;;7.00;99.90;;;6.58;98.08;97899.19;6226396;23;20000;-89
2020/12/27 08:52:20;;;;;;;0.90;0.20;;;6.80;99.90;;;6.61;98.34;97885.19;6225345;23;20091;-86
2020/12/27 08:54:52;;;;;;;1.17;0.22;;;6.80;99.90;;;6.63;98.20;97877.66;6223527;23;20004;-87
2020/12/27 08:57:18;;;;;;;0.22;0.20;;;6.90;99.90;;;6.68;98.08;97883.13;6226565;23;20084;-87
2020/12/27 09:00:03;;;;;;;0.40;0.30;;;6.90;99.90;;;6.62;98.03;97869.78;6202432;23;20012;-85
2020/12/27 09:02:29;;;;;;;;;;;6.90;99.90;;;6.62;98.29;97865.22;6226462;23;20015;-86
2020/12/27 09:05:10;;;;;;;0.52;0.52;;;7.00;99.90;;;6.65;98.74;97850.41;6202059;23;19990;-87
2020/12/27 09:07:45;;;;;;;2.10;0.20;;;6.90;99.90;;;6.68;98.57;97877.72;6200184;23;20016;-86
2020/12/27 09:10:22;;;;;;;0.28;0.20;;;7.00;99.90;;;6.62;99.65;97851.69;6227476;23;20008;-87
2020/12/27 09:13:12;;;;;;;0.28;0.10;;;6.90;99.90;;;6.67;98.98;97849.06;6226074;23;20015;-88
2020/12/27 09:16:02;;;;;;;0.93;0.30;;;6.90;99.90;;;6.71;98.61;97836.69;6226198;23;20012;-90
2020/12/27 09:18:50;;;;;;;0.30;0.20;;;6.80;99.90;;;6.70;98.76;97832.34;6229808;23;20008;-90
2020/12/27 09:21:17;;;;;;;0.30;0.30;;;6.90;99.90;;;6.72;98.57;97797.78;6254394;22;20039;-90
2020/12/27 09:23:43;;;;;;;0.20;0.20;;;6.90;99.90;;;6.72;98.72;97805.06;6239706;22;20011;-90
2020/12/27 09:26:13;;;;;;;0.20;0.20;;;6.90;99.90;;;6.75;98.37;97797.28;6240116;22;20012;-89
2020/12/27 09:28:43;;;;;;;0.20;0.20;;;7.00;99.90;;;6.74;98.28;97784.03;6261608;22;20027;-88
2020/12/27 09:31:13;;;;;;;0.20;0.20;;;6.90;99.90;;;6.72;98.70;97789.66;6238061;22;20019;-87
2020/12/27 09:33:48;;;;;;;0.17;0.10;;;7.40;99.90;;;6.74;98.53;97774.03;6261552;22;20023;-89
2020/12/27 09:36:15;;;;;;;0.30;0.20;;;6.90;99.90;;;6.77;98.96;97775.41;6236445;22;20015;-86
2020/12/27 09:38:46;;;;;;;0.20;0.20;;;6.90;99.90;;;6.79;98.46;97782.19;6259144;22;20493;-87
2020/12/27 09:41:16;;;;;;;0.95;0.30;;;6.80;99.90;;;6.65;98.28;97753.09;6232771;22;20042;-87
2020/12/27 09:44:02;;;;;;;7.35;1.60;;;6.90;99.90;;;6.63;99.26;97728.22;6231347;22;20011;-88
2020/12/27 09:46:51;;;;;;;0.20;0.20;;;6.90;99.90;;;6.65;99.13;97748.50;6231366;22;20455;-89
2020/12/27 09:49:31;;;;;;;0.35;0.20;;;7.00;99.90;;;6.65;99.13;97742.28;6232857;22;20091;-89
2020/12/27 09:52:12;;;;;;;1.77;0.30;;;7.20;99.90;;;6.66;99.10;97728.50;6262230;22;20004;-88
2020/12/27 09:54:45;;;;;;;0.20;0.20;;;6.90;99.90;;;6.65;99.24;97710.69;6256847;22;20008;-89
2020/12/27 09:57:14;;;;;;;0.22;0.15;;;6.90;99.90;;;6.73;99.16;97731.03;6232296;22;20477;-88
2020/12/27 09:59:45;;;;;;;0.65;0.30;;;6.90;99.90;;;6.70;98.48;97718.81;6281344;22;20004;-89
2020/12/27 10:02:11;;;;;;;1.05;0.20;;;7.00;99.90;;;6.75;98.15;97720.78;6257470;22;20019;-88
2020/12/27 10:04:40;;;;;;;2.17;0.30;;;7.30;99.90;;;6.81;98.66;97703.53;6258550;22;20038;-87
2020/12/27 10:07:06;;;;;;;0.40;0.22;;;7.20;99.90;;;6.84;98.25;97682.22;6233935;22;20018;-88
2020/12/27 10:09:32;;;;;;;1.45;0.20;;;7.30;99.90;;;6.89;97.63;97701.19;6257793;22;20009;-88
2020/12/27 10:11:59;;;;;;;1.13;0.22;;;7.10;99.90;;;6.91;97.84;97699.06;6257009;22;20031;-88
2020/12/27 10:14:27;;;;;;;0.85;0.30;;;7.10;99.90;;;6.93;96.79;97683.41;6258319;22;20007;-88
2020/12/27 10:16:57;;;;;;;0.45;0.20;;;7.20;99.90;;;6.97;96.76;97653.16;6231904;22;20110;-88
2020/12/27 10:19:24;;;;;;;0.30;0.13;;;7.30;99.90;;;7.04;96.67;97654.56;6261284;22;20011;-90
2020/12/27 10:21:51;;;;;;;0.40;0.20;;;7.70;99.90;;;6.98;95.97;97661.03;6206374;23;20019;-89
2020/12/27 10:24:17;;;;;;;0.13;0.13;;;7.30;99.90;;;7.07;96.46;97658.66;6202869;23;20020;-89
2020/12/27 10:26:51;;;;;;;0.63;0.20;;;7.20;99.90;;;6.99;96.87;97632.09;6227241;23;20019;-89
2020/12/27 10:29:18;;;;;;;0.20;0.20;;;7.30;99.90;;;7.04;96.60;97634.81;6226378;23;20011;-88
2020/12/27 10:31:55;;;;;;;0.20;0.15;;;7.30;99.90;;;7.09;96.54;97622.19;6226059;23;20075;-90
2020/12/27 10:34:22;;;;;;;0.20;0.20;;;7.30;99.90;;;7.00;96.99;97626.41;6227247;23;20012;-88
2020/12/27 10:36:51;;;;;;;0.90;0.30;;;7.30;99.90;;;6.98;96.65;97639.38;6225756;23;20004;-88
2020/12/27 10:39:18;;;;;;;0.45;0.10;;;7.30;99.90;;;6.96;97.89;97624.47;6226265;23;20008;-88
2020/12/27 10:41:47;;;;;;;0.75;0.50;;;7.40;99.90;;;6.97;98.79;97605.31;6201376;23;20028;-89
2020/12/27 10:44:13;;;;;;;0.85;0.50;;;7.20;99.90;;;6.93;98.74;97632.03;6201439;23;20443;-88
2020/12/27 10:46:39;;;;;;;0.45;0.20;;;7.10;99.90;;;6.88;99.34;97629.25;6200247;23;20008;-88
2020/12/27 10:49:07;;;;;;;0.13;0.13;;;7.10;99.90;;;6.86;100.00;97598.19;6226538;23;20016;-90
2020/12/27 10:51:35;;;;;;;1.38;0.35;;;7.10;99.90;;;6.81;100.00;97596.22;6200173;23;20027;-89
2020/12/27 10:54:02;;;;;;;0.55;0.20;;;7.10;99.90;;;6.71;100.00;97585.31;6231267;23;20008;-85
2020/12/27 10:56:28;;;;;;;0.80;0.38;;;7.00;99.90;;;6.74;100.00;97617.25;6224399;23;20008;-87
2020/12/27 10:58:54;;;;;;;0.20;0.20;;;6.90;99.90;;;6.66;100.00;97611.50;6174306;23;20194;-86
2020/12/27 11:01:21;;;;;;;0.32;0.30;;;7.10;99.90;;;6.61;100.00;97606.84;6225392;23;20015;-87
2020/12/27 11:03:47;;;;;;;2.35;0.45;;;6.90;99.90;;;6.59;100.00;97636.00;6200745;23;20012;-88
2020/12/27 11:06:14;;;;;;;0.85;0.40;;;6.80;99.90;;;6.49;100.00;97606.19;6182799;23;20034;-93
2020/12/27 11:09:21;;;;;;;0.15;0.15;;;6.80;99.90;;;6.53;100.00;97616.22;6212556;23;20005;-92
2020/12/27 11:11:55;;;;;;;2.70;0.30;;;6.80;99.90;;;6.52;100.00;97598.38;6262083;23;20012;-92
2020/12/27 11:18:05;;;;;;;2.25;0.30;;;6.80;99.90;;;6.53;100.00;97612.72;6266762;23;20018;-94
2020/12/27 11:20:34;;;;;;;0.63;0.47;;;6.80;99.90;;;6.50;100.00;97607.81;6251263;22;20011;-92
2020/12/27 11:23:01;;;;;;;0.30;0.20;;;6.80;99.90;;;6.51;100.00;97617.56;6270533;22;20000;-94
2020/12/27 11:25:27;;;;;;;1.17;0.20;;;6.80;99.90;;;6.51;100.00;97618.38;6269558;22;20016;-91
2020/12/27 11:27:55;;;;;;;1.85;0.40;;;6.80;99.90;;;6.58;100.00;97591.13;6271584;22;20016;-94
2020/12/27 11:34:02;;;;;;;2.25;0.52;;;6.90;99.90;;;6.60;100.00;97605.22;6296544;22;20042;-92
2020/12/27 11:36:28;;;;;;;0.98;0.40;;;6.80;99.90;;;6.57;100.00;97622.75;6265336;22;20436;-92
2020/12/27 11:38:55;;;;;;;0.65;0.28;;;6.90;99.90;;;6.68;100.00;97596.63;6238366;22;20011;-94
2020/12/27 11:41:24;;;;;;;2.88;0.75;;;6.90;99.90;;;6.67;100.00;97603.09;6266118;22;20000;-91
2020/12/27 11:44:03;;;;;;;2.42;0.30;;;7.00;99.90;;;6.64;100.00;97617.16;6267955;22;19985;-93
2020/12/27 11:46:33;;;;;;;2.72;0.45;;;6.80;99.90;;;6.70;100.00;97626.94;6269252;22;20331;-95
2020/12/27 11:49:01;;;;;;;2.10;0.30;;;6.90;99.90;;;6.68;100.00;97602.03;6267089;23;20009;-92
2020/12/27 11:51:27;;;;;;;1.02;0.30;;;6.90;99.90;;;6.70;100.00;97615.31;6186371;23;20376;-93
2020/12/27 11:54:17;;;;;;;2.13;0.30;;;6.90;99.90;;;6.68;100.00;97615.56;6210293;23;20008;-91
2020/12/27 12:00:25;;;;;;;1.20;0.20;;;7.10;99.90;;;6.50;100.00;97616.72;6234017;23;20055;-90
2020/12/27 12:02:51;;;;;;;0.95;0.28;;;6.80;99.90;;;6.53;100.00;97610.00;6205411;23;20012;-90
2020/12/27 12:05:17;;;;;;;0.60;0.30;;;6.80;99.90;;;6.52;100.00;97611.09;6183225;23;20022;-91
2020/12/27 12:07:43;;;;;;;0.82;0.70;;;6.70;99.90;;;6.53;100.00;97589.22;6208930;23;20008;-91
2020/12/27 12:10:09;;;;;;;2.00;0.85;;;6.70;99.90;;;6.56;100.00;97577.88;6185292;23;20012;-90
2020/12/27 12:12:36;;;;;;;0.75;0.40;;;6.70;99.90;;;6.60;100.00;97578.19;6208772;23;20004;-92
2020/12/27 12:15:02;;;;;;;2.63;0.45;;;6.80;99.90;;;6.71;100.00;97579.91;6185499;23;20008;-92
2020/12/27 12:17:28;;;;;;;1.85;0.50;;;6.90;99.90;;;6.67;100.00;97570.69;6184292;23;20048;-91
2020/12/27 12:23:10;;;;;;;2.35;0.22;;;7.20;99.90;;;6.78;100.00;97552.66;6188968;23;20089;-91
2020/12/27 12:25:42;;;;;;;1.65;0.30;;;7.10;99.90;;;6.78;100.00;97550.78;6161187;23;20028;-91
2020/12/27 12:28:38;;;;;;;;;;;;;;;;;;;;;
2020/12/27 12:31:05;;;;;;;1.95;0.45;;;6.90;99.90;;;6.91;100.00;97536.84;6224521;23;20042;-90
2020/12/27 12:33:31;;;;;;;0.40;0.30;;;7.20;99.90;;;6.98;100.00;97530.41;6234838;23;20015;-91
2020/12/27 12:36:00;;;;;;;1.33;0.30;;;7.00;99.90;;;7.07;100.00;97523.44;6232737;23;20038;-90
2020/12/27 12:38:29;;;;;;;1.02;0.40;;;7.10;99.90;;;6.97;100.00;97523.38;6231617;23;20032;-91
2020/12/27 12:40:57;;;;;;;0.93;0.40;;;7.10;99.90;;;7.06;100.00;97513.69;6233514;23;20016;-92
2020/12/27 12:43:23;;;;;;;0.20;0.20;;;7.10;99.90;;;7.09;100.00;97505.06;6231724;23;20012;-87
2020/12/27 12:45:50;;;;;;;0.32;0.30;;;7.10;99.90;;;6.93;100.00;97498.72;6202929;23;20026;-86
2020/12/27 12:48:16;;;;;;;4.57;0.95;;;7.20;99.90;;;6.89;100.00;97508.44;6230283;23;20068;-88
2020/12/27 12:50:43;;;;;;;0.40;0.30;;;7.10;99.90;;;6.75;100.00;97499.16;6205051;23;20012;-87
2020/12/27 12:53:09;;;;;;;3.17;0.35;;;7.00;99.90;;;6.81;100.00;97493.50;6179289;23;19988;-89
2020/12/27 12:55:34;;;;;;;0.32;0.17;;;6.80;99.90;;;6.81;100.00;97487.28;6229924;23;20068;-87
2020/12/27 12:58:00;;;;;;;0.20;0.20;;;7.00;99.90;;;6.86;100.00;97490.84;6229304;23;20000;-86
2020/12/27 13:00:26;;;;;;;0.75;0.47;;;7.00;99.90;;;6.85;100.00;97483.00;6228739;23;20344;-88
2020/12/27 13:02:52;;;;;;;2.33;0.50;;;7.00;99.90;;;6.93;100.00;97499.56;6203523;23;20023;-88
2020/12/27 13:05:25;;;;;;;1.40;0.63;;;6.60;99.90;;;6.93;100.00;97494.16;6228181;23;20019;-86
2020/12/27 13:07:50;;;;;;;0.93;0.50;;;7.10;99.90;;;6.82;100.00;97488.91;6228962;23;20008;-87
2020/12/27 13:10:17;;;;;;;2.17;0.52;;;7.20;99.90;;;6.59;100.00;97494.69;6227617;23;20014;-88
2020/12/27 13:12:43;;;;;;;2.47;0.57;;;7.00;99.90;;;6.84;100.00;97493.00;6228052;23;20015;-87
2020/12/27 13:15:10;;;;;;;2.85;0.50;;;7.00;99.90;;;6.96;100.00;97489.28;6228478;23;20008;-89
2020/12/27 13:17:35;;;;;;;0.80;0.45;;;7.00;99.90;;;6.73;100.00;97491.28;6227080;23;20055;-88
2020/12/27 13:20:07;;;;;;;1.08;0.63;;;7.00;99.90;;;6.75;100.00;97491.84;6230395;22;20023;-88
2020/12/27 13:22:33;;;;;;;2.50;1.30;;;6.90;99.90;;;6.84;100.00;97487.59;6231884;22;20012;-88
2020/12/27 13:25:03;;;;;;;1.00;0.70;;;7.00;99.90;;;6.80;100.00;97486.47;6256460;22;20015;-88
2020/12/27 13:27:35;;;;;;;2.85;0.50;;;7.10;99.90;;;6.78;100.00;97488.63;6231213;22;20012;-87
2020/12/27 13:30:01;;;;;;;2.53;0.68;;;7.00;99.90;;;6.68;100.00;97487.72;6260371;22;20011;-88
2020/12/27 13:32:27;;;;;;;3.42;0.50;;;6.90;99.90;;;6.64;100.00;97482.03;6239635;22;20004;-91
2020/12/27 13:34:53;;;;;;;2.28;0.40;;;7.00;99.90;;;6.79;100.00;97479.44;6268502;22;20008;-92
2020/12/27 13:37:19;;;;;;;0.55;0.40;;;6.90;99.90;;;6.76;100.00;97485.38;6265519;22;20090;-91
2020/12/27 13:39:45;;;;;;;1.30;0.50;;;6.90;99.90;;;6.68;100.00;97477.72;6266545;22;20011;-91
2020/12/27 13:42:11;;;;;;;1.13;0.60;;;6.90;99.90;;;6.88;100.00;97483.28;6260046;22;20012;-88
2020/12/27 13:44:37;;;;;;;1.60;0.63;;;6.90;99.90;;;6.83;100.00;97485.16;6256188;22;20012;-86
2020/12/27 13:47:05;;;;;;;0.40;0.40;;;7.10;99.90;;;6.82;100.00;97484.31;6257649;22;20031;-87
2020/12/27 13:49:32;;;;;;;2.63;0.70;;;7.30;99.90;;;6.74;100.00;97487.53;6257910;22;20012;-88
2020/12/27 13:51:58;;;;;;;1.38;0.55;;;6.70;99.90;;;6.84;100.00;97474.06;6260010;22;20454;-91
2020/12/27 13:54:27;;;;;;;4.38;0.70;;;7.20;99.90;;;6.75;100.00;97467.53;6263694;22;20340;-92
2020/12/27 13:56:57;;;;;;;0.80;0.52;;;7.00;99.90;;;6.80;100.00;97481.06;6264908;22;20015;-91
2020/12/27 13:59:23;;;;;;;2.05;0.43;;;7.00;99.90;;;6.75;100.00;97464.00;6237789;22;20007;-92
2020/12/27 14:01:50;;;;;;;1.10;0.60;;;7.00;99.90;;;6.79;100.00;97471.31;6263329;22;20007;-92
2020/12/27 14:04:19;;;;;;;3.67;0.65;;;6.90;99.90;;;6.70;100.00;97469.38;6267480;22;20007;-92
2020/12/27 14:06:45;;;;;;;5.57;1.20;;;6.80;99.90;;;6.78;100.00;97471.56;6266309;22;20034;-92
2020/12/27 14:12:52;;;;;;;1.58;0.60;;;6.80;99.90;;;6.72;100.00;97462.63;6295112;22;20034;-91
2020/12/27 14:15:19;;;;;;;0.82;0.60;;;7.00;99.90;;;6.67;100.00;97457.19;6239189;22;20011;-87
2020/12/27 14:17:46;;;;;;;0.70;0.60;;;7.00;99.90;;;6.59;100.00;97440.63;6237101;22;20054;-88